Monday, December 18, 2017, 7:37 AM EST
Back to Local

KNAK, Annapolis Us Naval Academy

Location: Annapolis, MD, United States Lat: 38.983
Local Time: 7:37 AM EST (12:37 GMT) Lon: -76.483
Time Zone: US/Eastern Elev: 6 ft

Show me the last for .
Show Decoded

2017-12-18 06:54 METAR KNAK 181154Z AUTO 00000KT 6SM BR OVC050 04/03 A3013 RMK AO2 SLP203
                 T00440033 10050 20039 51005 =
2017-12-18 05:54 METAR KNAK 181054Z AUTO 00000KT 6SM BR OVC055 04/03 A3012 RMK AO2 SLP203
                 T00390033 =
2017-12-18 04:54 METAR KNAK 180954Z AUTO 33005KT 5SM BR OVC060 04/04 A3011 RMK AO2 SLP199
                 T00440039 =
2017-12-18 03:54 METAR KNAK 180854Z AUTO 35004KT 6SM BR OVC060 04/04 A3011 RMK AO2 SLP198
                 T00440039 56010 =
2017-12-18 02:54 METAR KNAK 180754Z AUTO 00000KT 6SM BR OVC060 05/04 A3012 RMK AO2 SLP201
                 T00500039 =
2017-12-18 01:54 METAR KNAK 180654Z AUTO 00000KT 6SM BR BKN065 OVC085 05/04 A3012 RMK AO2 SLP202
                 T00500039 =
2017-12-18 00:54 METAR KNAK 180554Z AUTO 00000KT 8SM OVC070 05/04 A3014 RMK AO2 SLP208 T00500039
                 10061 20050 58006 =
2017-12-17 23:54 METAR KNAK 180454Z AUTO 00000KT 10SM OVC070 06/03 A3016 RMK AO2 SLP215 T00560028
                 400721011 =
2017-12-17 22:54 METAR KNAK 180354Z AUTO 00000KT 10SM OVC075 06/03 A3016 RMK AO2 SLP216 T00560033
                 =
2017-12-17 21:54 METAR KNAK 180254Z AUTO 00000KT 10SM OVC080 06/03 A3016 RMK AO2 SLP214 T00560028
                 56017 =
2017-12-17 20:54 METAR KNAK 180154Z AUTO 00000KT 9SM BKN100 OVC120 06/05 A3017 RMK AO2 SLP219
                 T00560050 =
2017-12-17 19:54 METAR KNAK 180054Z AUTO 12005KT 10SM OVC110 06/04 A3019 RMK AO2 SLP225 T00610039
                 =
2017-12-17 18:54 METAR KNAK 172354Z AUTO 00000KT 10SM OVC100 06/04 A3021 RMK AO2 SLP231 T00560039
                 10061 20056 50005 =
2017-12-17 17:54 METAR KNAK 172254Z AUTO 00000KT 10SM BKN095 06/03 A3023 RMK AO2 SLP237 T00560033
                 =
2017-12-17 16:54 METAR KNAK 172154Z AUTO 14003KT 10SM FEW075 BKN110 06/03 A3019 RMK AO2 SLP226
                 T00610028 =
2017-12-17 15:54 METAR KNAK 172054Z AUTO 11003KT 10SM SCT120 06/03 A3019 RMK AO2 SLP226 T00610033
                 56010 =
2017-12-17 14:54 METAR KNAK 171954Z AUTO 11005KT 10SM CLR 06/02 A3020 RMK AO2 SLP228 T00560022 =
2017-12-17 13:54 METAR KNAK 171854Z AUTO 13006KT 9SM CLR 06/03 A3020 RMK AO2 SLP229 T00560028 =
2017-12-17 12:54 METAR KNAK 171754Z AUTO 15007KT 9SM CLR 06/02 A3022 RMK AO2 SLP236 T00610022
                 10072 21006 58016 =
2017-12-17 11:54 METAR KNAK 171654Z AUTO 13005KT 10SM CLR 06/03 A3027 RMK AO2 SLP250 T00560028 =
2017-12-17 10:54 METAR KNAK 171554Z AUTO 34003KT 10SM CLR 07/01 A3027 RMK AO2 SLP251 T00670006 =
2017-12-17 09:54 METAR KNAK 171454Z AUTO 00000KT 10SM CLR 04/M01 A3027 RMK AO2 SLP252 T00441006
                 51005 =
2017-12-17 08:54 METAR KNAK 171354Z AUTO 00000KT 10SM CLR 02/M01 A3027 RMK AO2 SLP252 T00221006 =
2017-12-17 07:54 METAR KNAK 171254Z AUTO 00000KT 10SM CLR 00/M02 A3026 RMK AO2 SLP247 T00001022 =

Support USWX by starting your Amazon purchase here.